Santa Paula, California
Current Conditions -  °F | °C
As of 3:05 AM on Saturday 25 Oct 2014 (Local Time) from KCMA Reporting Station
Broken Clouds Broken Clouds  
Wind Chill: 56°   Ceiling: 900
Heat Index: 56°   Visibility: 10mi
Dew Point: 51°   Wind: 5mph
Humidity: 84%   Direction: 280°W
Pressure: 30.01"   Gusts: NA
Location:  34.35°N, 119.05°W
Report Text: KCMA 251005Z AUTO 28004KT 10SM BKN009 13/11 A3001 RMK AO2 T01330106
Loading
Personal Weather Stations






























Interactive Weather Map New forecast layout! Learn more

10-Day Weather Forecast

Advertisements
Track Severe Weather on mobile